createdAt,value
2022-12-14T00:00:51.237Z,100917.53
2022-12-14T00:02:52.787Z,100910.63
2022-12-14T00:04:54.450Z,100908.94
2022-12-14T00:06:55.887Z,100906.31
2022-12-14T00:09:02.200Z,100907.13
2022-12-14T00:11:03.687Z,100906.19
2022-12-14T00:13:06.844Z,100903.69
2022-12-14T00:15:08.899Z,100902.81
2022-12-14T00:17:10.402Z,100898.47
2022-12-14T00:19:12.234Z,100897.59
2022-12-14T00:21:14.275Z,100900.13
2022-12-14T00:23:15.772Z,100891.53
2022-12-14T00:25:17.339Z,100891.47
2022-12-14T00:27:18.771Z,100887.22
2022-12-14T00:29:20.197Z,100894.84
2022-12-14T00:31:23.192Z,100893.09
2022-12-14T00:33:24.737Z,100891.34
2022-12-14T00:35:26.168Z,100896.34
2022-12-14T00:37:27.615Z,100890.34
2022-12-14T00:39:29.033Z,100888.59
2022-12-14T00:41:30.471Z,100885.09
2022-12-14T00:43:31.985Z,100883.31
2022-12-14T00:45:33.428Z,100888.47
2022-12-14T00:47:40.376Z,100883.25
2022-12-14T00:49:42.216Z,100878.94
2022-12-14T00:51:43.657Z,100881.50
2022-12-14T00:53:45.097Z,100881.50
2022-12-14T00:55:49.553Z,100882.31
2022-12-14T00:57:51.178Z,100877.94
2022-12-14T00:59:52.601Z,100887.31
2022-12-14T01:01:54.176Z,100881.25
2022-12-14T01:04:15.886Z,100882.06
2022-12-14T01:06:20.151Z,100880.31
2022-12-14T01:08:21.821Z,100872.56
2022-12-14T01:10:23.440Z,100864.84
2022-12-14T01:12:24.998Z,100872.50
2022-12-14T01:14:26.434Z,100876.75
2022-12-14T01:16:28.169Z,100871.53
2022-12-14T01:18:29.643Z,100870.72
2022-12-14T01:20:31.149Z,100868.97
2022-12-14T01:22:32.587Z,100871.53
2022-12-14T01:24:34.005Z,100866.34
2022-12-14T01:26:40.212Z,100867.13
2022-12-14T01:28:42.284Z,100863.69
2022-12-14T01:30:43.747Z,100853.34
2022-12-14T01:32:46.098Z,100863.63
2022-12-14T01:34:51.176Z,100867.88
2022-12-14T01:36:52.617Z,100864.44
2022-12-14T01:38:56.613Z,100855.78
2022-12-14T01:40:58.773Z,100864.38
2022-12-14T01:43:00.258Z,100862.63
2022-12-14T01:45:01.947Z,100866.88
2022-12-14T01:47:24.463Z,100859.13
2022-12-14T01:49:32.082Z,100861.69
2022-12-14T01:51:36.340Z,100852.28
2022-12-14T01:53:37.892Z,100852.22
2022-12-14T01:55:42.958Z,100850.47
2022-12-14T01:58:07.050Z,100843.59
2022-12-14T02:00:10.802Z,100839.19
2022-12-14T02:02:14.794Z,100846.03
2022-12-14T02:04:19.058Z,100841.66
2022-12-14T02:06:33.852Z,100843.41
2022-12-14T02:08:36.210Z,100833.94
2022-12-14T02:10:38.017Z,100831.31
2022-12-14T02:12:44.182Z,100834.69
2022-12-14T02:14:47.090Z,100841.44
2022-12-14T02:16:55.097Z,100834.56
2022-12-14T02:18:56.576Z,100827.56
2022-12-14T02:21:36.768Z,100824.09
2022-12-14T02:23:50.063Z,100818.91
2022-12-14T02:26:34.074Z,100805.22
2022-12-14T02:29:12.782Z,100811.09
2022-12-14T02:31:33.300Z,100811.91
2022-12-14T02:33:52.682Z,100809.22
2022-12-14T02:36:15.887Z,100803.13
2022-12-14T02:38:42.702Z,100800.50
2022-12-14T02:41:07.306Z,100803.88
2022-12-14T02:43:27.790Z,100797.88
2022-12-14T02:45:53.029Z,100795.31
2022-12-14T02:48:06.986Z,100791.88
2022-12-14T02:50:24.037Z,100796.13
2022-12-14T02:52:28.561Z,100787.47
2022-12-14T02:54:44.289Z,100777.13
2022-12-14T02:56:57.779Z,100775.38
2022-12-14T02:59:02.105Z,100785.56
2022-12-14T03:01:04.298Z,100784.63
2022-12-14T03:03:06.728Z,100779.44
2022-12-14T03:05:09.130Z,100788.81
2022-12-14T03:07:48.872Z,100781.06
2022-12-14T03:09:52.173Z,100780.19
2022-12-14T03:12:00.871Z,100780.19
2022-12-14T03:14:12.705Z,100778.31
2022-12-14T03:16:19.780Z,100773.19
2022-12-14T03:18:24.880Z,100767.03
2022-12-14T03:20:30.983Z,100763.59
2022-12-14T03:22:43.588Z,100759.22
2022-12-14T03:24:52.494Z,100764.28
2022-12-14T03:27:05.080Z,100760.78
2022-12-14T03:29:15.491Z,100765.03
2022-12-14T03:31:35.838Z,100759.91
2022-12-14T03:33:39.879Z,100756.53
2022-12-14T03:36:06.565Z,100750.53
2022-12-14T03:38:16.996Z,100746.22
2022-12-14T03:40:19.552Z,100742.03
2022-12-14T03:42:30.944Z,100737.66
2022-12-14T03:44:50.007Z,100731.66
2022-12-14T03:47:11.746Z,100733.28
2022-12-14T03:49:41.091Z,100725.50
2022-12-14T03:51:50.009Z,100724.63
2022-12-14T03:54:11.210Z,100720.31
2022-12-14T03:56:30.587Z,100722.81
2022-12-14T03:58:50.013Z,100722.81
2022-12-14T04:01:00.730Z,100715.88
2022-12-14T04:03:10.086Z,100725.25
2022-12-14T04:05:38.067Z,100717.56
2022-12-14T04:07:49.057Z,100706.38
2022-12-14T04:09:54.165Z,100700.38
2022-12-14T04:12:28.244Z,100700.38
2022-12-14T04:14:55.733Z,100698.63
2022-12-14T04:17:18.980Z,100696.81
2022-12-14T04:19:27.131Z,100694.13
2022-12-14T04:21:36.618Z,100687.34
2022-12-14T04:24:05.407Z,100688.25
2022-12-14T04:26:13.001Z,100694.25
2022-12-14T04:28:54.111Z,100694.13
2022-12-14T04:30:59.758Z,100684.69
2022-12-14T04:33:27.304Z,100689.81
2022-12-14T04:35:39.762Z,100680.38
2022-12-14T04:37:45.064Z,100683.03
2022-12-14T04:40:08.538Z,100678.72
2022-12-14T04:42:13.973Z,100676.94
2022-12-14T04:44:30.627Z,100683.75
2022-12-14T04:46:40.374Z,100684.56
2022-12-14T04:48:48.735Z,100680.25
2022-12-14T04:51:00.229Z,100678.56
2022-12-14T04:53:10.964Z,100668.31
2022-12-14T04:55:34.366Z,100675.94
2022-12-14T04:57:49.640Z,100673.31
2022-12-14T04:59:51.644Z,100681.88
2022-12-14T05:02:17.130Z,100680.13
2022-12-14T05:04:40.118Z,100675.00
2022-12-14T05:06:50.699Z,100681.00
2022-12-14T05:09:09.698Z,100677.56
2022-12-14T05:11:53.137Z,100681.81
2022-12-14T05:13:49.560Z,100674.94
2022-12-14T05:15:56.341Z,100678.31
2022-12-14T05:18:03.051Z,100670.56
2022-12-14T05:20:05.677Z,100670.56
2022-12-14T05:22:08.222Z,100663.69
2022-12-14T05:24:09.711Z,100668.75
2022-12-14T05:26:11.154Z,100667.06
2022-12-14T05:28:12.987Z,100670.50
2022-12-14T05:30:14.778Z,100666.25
2022-12-14T05:32:16.306Z,100664.50
2022-12-14T05:34:18.125Z,100660.19
2022-12-14T05:36:19.879Z,100655.88
2022-12-14T05:38:21.356Z,100662.63
2022-12-14T05:40:22.783Z,100657.44
2022-12-14T05:42:24.318Z,100659.13
2022-12-14T05:44:25.741Z,100655.69
2022-12-14T05:46:27.302Z,100647.94
2022-12-14T05:48:29.897Z,100643.56
2022-12-14T05:50:31.723Z,100641.81
2022-12-14T05:52:33.155Z,100636.69
2022-12-14T05:54:34.577Z,100638.28
2022-12-14T05:56:36.110Z,100630.56
2022-12-14T05:58:38.433Z,100626.09
2022-12-14T06:00:40.105Z,100621.78
2022-12-14T06:02:41.597Z,100625.22
2022-12-14T06:04:43.153Z,100631.97
2022-12-14T06:06:44.731Z,100630.22
2022-12-14T06:08:46.749Z,100631.03
2022-12-14T06:10:48.266Z,100620.78
2022-12-14T06:12:50.037Z,100630.16
2022-12-14T06:14:51.520Z,100619.03
2022-12-14T06:16:53.056Z,100615.59
2022-12-14T06:18:59.811Z,100619.91
2022-12-14T06:21:01.340Z,100618.16
2022-12-14T06:23:03.001Z,100622.41
2022-12-14T06:25:04.689Z,100618.09
2022-12-14T06:27:06.500Z,100620.66
2022-12-14T06:29:14.054Z,100624.91
2022-12-14T06:31:18.853Z,100617.22
2022-12-14T06:33:20.446Z,100624.03
2022-12-14T06:35:21.871Z,100625.78
2022-12-14T06:37:23.323Z,100624.03
2022-12-14T06:39:24.795Z,100621.47
2022-12-14T06:41:26.233Z,100621.38
2022-12-14T06:43:28.100Z,100622.19
2022-12-14T06:45:30.205Z,100625.56
2022-12-14T06:47:31.623Z,100620.34
2022-12-14T06:49:33.135Z,100619.50
2022-12-14T06:51:40.759Z,100632.28
2022-12-14T06:53:42.182Z,100614.22
2022-12-14T06:55:43.716Z,100627.00
2022-12-14T06:57:51.613Z,100617.63
2022-12-14T06:59:53.051Z,100617.63
2022-12-14T07:01:54.562Z,100615.88
2022-12-14T07:03:57.964Z,100612.50
2022-12-14T07:06:01.393Z,100611.75
2022-12-14T07:08:04.046Z,100613.50
2022-12-14T07:10:06.998Z,100610.94
2022-12-14T07:12:08.434Z,100607.50
2022-12-14T07:14:16.251Z,100607.56
2022-12-14T07:16:21.164Z,100611.00
2022-12-14T07:18:23.178Z,100600.75
2022-12-14T07:20:24.627Z,100605.06
2022-12-14T07:22:26.093Z,100594.81
2022-12-14T07:24:27.538Z,100598.31
2022-12-14T07:26:30.070Z,100597.50
2022-12-14T07:28:32.354Z,100597.50
2022-12-14T07:30:33.806Z,100589.94
2022-12-14T07:32:35.252Z,100586.50
2022-12-14T07:34:36.710Z,100583.13
2022-12-14T07:36:38.205Z,100590.81
2022-12-14T07:38:41.363Z,100589.94
2022-12-14T07:40:43.422Z,100593.38
2022-12-14T07:42:49.349Z,100590.88
2022-12-14T07:44:50.847Z,100586.63
2022-12-14T07:46:53.382Z,100584.94
2022-12-14T07:48:56.494Z,100585.88
2022-12-14T07:51:07.235Z,100585.00
2022-12-14T07:53:08.650Z,100588.50
2022-12-14T07:55:10.097Z,100576.56
2022-12-14T07:57:11.532Z,100580.88
2022-12-14T07:59:16.072Z,100583.50
2022-12-14T08:01:20.604Z,100590.38
2022-12-14T08:03:22.122Z,100589.56
2022-12-14T08:05:23.567Z,100578.50
2022-12-14T08:07:25.131Z,100587.13
2022-12-14T08:09:26.690Z,100588.88
2022-12-14T08:11:28.903Z,100594.06
2022-12-14T08:13:31.222Z,100594.06
2022-12-14T08:15:37.456Z,100593.19
2022-12-14T08:17:38.892Z,100594.06
2022-12-14T08:19:40.323Z,100595.88
2022-12-14T08:21:42.120Z,100596.00
2022-12-14T08:23:43.550Z,100591.91
2022-12-14T08:25:45.008Z,100589.47
2022-12-14T08:27:46.487Z,100584.41
2022-12-14T08:29:48.023Z,100587.09
2022-12-14T08:31:49.542Z,100590.66
2022-12-14T08:33:51.834Z,100590.88
2022-12-14T08:35:53.281Z,100589.31
2022-12-14T08:37:54.750Z,100592.00
2022-12-14T08:39:56.183Z,100591.38
2022-12-14T08:41:57.652Z,100582.88
2022-12-14T08:44:01.292Z,100584.72
2022-12-14T08:46:03.721Z,100580.66
2022-12-14T08:48:05.333Z,100575.72
2022-12-14T08:50:07.087Z,100579.22
2022-12-14T08:52:10.551Z,100577.72
2022-12-14T08:54:12.059Z,100576.13
2022-12-14T08:56:15.815Z,100573.69
2022-12-14T08:58:17.289Z,100573.03
2022-12-14T09:00:18.944Z,100568.03
2022-12-14T09:02:20.646Z,100569.94
2022-12-14T09:04:22.440Z,100575.19
2022-12-14T09:06:27.748Z,100565.09
2022-12-14T09:08:29.177Z,100566.09
2022-12-14T09:10:30.794Z,100567.16
2022-12-14T09:12:32.337Z,100569.88
2022-12-14T09:14:34.455Z,100568.25
2022-12-14T09:16:37.602Z,100566.66
2022-12-14T09:18:39.463Z,100559.97
2022-12-14T09:20:43.282Z,100557.59
2022-12-14T09:22:45.850Z,100553.50
2022-12-14T09:24:48.011Z,100554.44
2022-12-14T09:26:50.515Z,100551.16
2022-12-14T09:28:55.856Z,100552.22
2022-12-14T09:31:00.081Z,100553.13
2022-12-14T09:33:01.510Z,100560.06
2022-12-14T09:35:02.982Z,100554.22
2022-12-14T09:37:07.368Z,100554.34
2022-12-14T09:39:08.894Z,100553.63
2022-12-14T09:41:34.577Z,100548.59
2022-12-14T09:43:39.015Z,100552.97
2022-12-14T09:45:51.098Z,100548.91
2022-12-14T09:48:06.586Z,100547.31
2022-12-14T09:50:20.410Z,100546.59
2022-12-14T09:52:40.669Z,100541.56
2022-12-14T09:54:44.393Z,100538.28
2022-12-14T09:56:46.065Z,100534.13
2022-12-14T09:58:54.557Z,100535.16
2022-12-14T10:01:22.497Z,100537.00
2022-12-14T10:03:36.933Z,100528.63
2022-12-14T10:05:50.506Z,100527.91
2022-12-14T10:08:23.964Z,100523.00
2022-12-14T10:10:31.637Z,100528.31
2022-12-14T10:12:59.112Z,100526.75
2022-12-14T10:15:25.032Z,100515.75
2022-12-14T10:17:48.243Z,100517.53
2022-12-14T10:19:55.533Z,100514.22
2022-12-14T10:22:17.938Z,100509.94
2022-12-14T10:24:27.389Z,100506.78
2022-12-14T10:26:45.752Z,100513.81
2022-12-14T10:29:01.708Z,100498.59
2022-12-14T10:31:07.997Z,100503.06
2022-12-14T10:33:31.636Z,100508.47
2022-12-14T10:35:51.803Z,100507.88
2022-12-14T10:38:11.364Z,100495.22
2022-12-14T10:40:29.196Z,100497.19
2022-12-14T10:43:04.010Z,100494.94
2022-12-14T10:47:39.729Z,100495.59
2022-12-14T10:49:57.368Z,100493.34
2022-12-14T10:52:16.902Z,100485.16
2022-12-14T10:54:21.065Z,100488.22
2022-12-14T10:56:35.187Z,100490.78
2022-12-14T10:58:36.689Z,100491.78
2022-12-14T11:00:38.486Z,100487.28
2022-12-14T11:02:43.367Z,100477.97
2022-12-14T11:04:58.424Z,100481.03
2022-12-14T11:07:03.125Z,100468.75
2022-12-14T11:09:20.519Z,100465.50
2022-12-14T11:11:24.797Z,100466.22
2022-12-14T11:13:26.339Z,100460.75
2022-12-14T11:15:42.359Z,100465.50
2022-12-14T11:17:44.333Z,100461.53
2022-12-14T11:20:05.096Z,100460.03
2022-12-14T11:22:20.266Z,100452.44
2022-12-14T11:24:28.559Z,100452.66
2022-12-14T11:26:42.360Z,100452.06
2022-12-14T11:28:50.394Z,100455.28
2022-12-14T11:30:59.621Z,100446.78
2022-12-14T11:33:01.259Z,100449.34
2022-12-14T11:35:02.816Z,100451.13
2022-12-14T11:37:22.931Z,100446.25
2022-12-14T11:39:25.193Z,100453.88
2022-12-14T11:41:37.958Z,100443.75
2022-12-14T11:43:39.625Z,100447.25
2022-12-14T11:45:41.099Z,100445.31
2022-12-14T11:47:42.589Z,100449.31
2022-12-14T11:49:48.908Z,100446.47
2022-12-14T11:52:05.412Z,100445.47
2022-12-14T11:54:07.831Z,100452.25
2022-12-14T11:56:17.334Z,100444.41
2022-12-14T11:58:22.900Z,100444.50
2022-12-14T12:00:41.319Z,100448.09
2022-12-14T12:02:57.887Z,100438.56
2022-12-14T12:05:14.530Z,100442.97
2022-12-14T12:07:26.107Z,100440.56
2022-12-14T12:09:31.024Z,100441.50
2022-12-14T12:11:34.948Z,100446.63
2022-12-14T12:13:41.935Z,100450.00
2022-12-14T12:15:52.265Z,100449.03
2022-12-14T12:17:59.261Z,100454.00
2022-12-14T12:20:00.794Z,100451.25
2022-12-14T12:22:04.230Z,100438.97
2022-12-14T12:24:27.068Z,100439.66
2022-12-14T12:26:35.392Z,100438.59
2022-12-14T12:28:43.135Z,100434.94
2022-12-14T12:30:49.757Z,100425.34
2022-12-14T12:32:53.593Z,100424.28
2022-12-14T12:35:12.396Z,100419.69
2022-12-14T12:37:26.424Z,100416.13
2022-12-14T12:39:30.733Z,100416.97
2022-12-14T12:41:47.477Z,100418.78
2022-12-14T12:44:06.481Z,100435.13
2022-12-14T12:46:28.267Z,100435.03
2022-12-14T12:48:39.936Z,100434.22
2022-12-14T12:50:51.266Z,100435.13
2022-12-14T12:53:00.967Z,100430.78
2022-12-14T12:55:17.650Z,100433.31
2022-12-14T12:57:20.437Z,100433.25
2022-12-14T12:59:31.095Z,100430.53
2022-12-14T13:01:45.161Z,100422.59
2022-12-14T13:04:00.467Z,100435.47
2022-12-14T13:06:21.950Z,100428.44
2022-12-14T13:08:30.617Z,100430.09
2022-12-14T13:10:34.271Z,100427.53
2022-12-14T13:12:44.225Z,100418.94
2022-12-14T13:14:52.759Z,100428.44
2022-12-14T13:16:55.579Z,100423.19
2022-12-14T13:19:48.847Z,100426.56
2022-12-14T13:21:49.660Z,100423.91
2022-12-14T13:23:51.664Z,100425.59
2022-12-14T13:26:18.993Z,100422.13
2022-12-14T13:28:51.172Z,100416.91
2022-12-14T13:31:03.549Z,100406.50
2022-12-14T13:33:43.013Z,100405.66
2022-12-14T13:35:53.224Z,100403.94
2022-12-14T13:38:13.065Z,100399.59
2022-12-14T13:40:31.489Z,100396.97
2022-12-14T13:43:23.807Z,100402.19
2022-12-14T13:45:39.784Z,100400.41
2022-12-14T13:47:48.475Z,100397.81
2022-12-14T13:50:26.412Z,100395.16
2022-12-14T13:52:41.920Z,100395.09
2022-12-14T13:54:47.174Z,100398.50
2022-12-14T13:56:49.157Z,100394.97
2022-12-14T13:58:52.016Z,100394.03
2022-12-14T14:01:11.855Z,100402.59
2022-12-14T14:03:35.269Z,100403.38
2022-12-14T14:05:43.329Z,100403.31
2022-12-14T14:08:02.333Z,100398.91
2022-12-14T14:10:34.200Z,100401.44
2022-12-14T14:12:41.745Z,100402.22
2022-12-14T14:14:55.890Z,100398.72
2022-12-14T14:17:01.909Z,100402.13
2022-12-14T14:19:09.299Z,100400.34
2022-12-14T14:21:13.828Z,100404.56
2022-12-14T14:23:18.210Z,100407.94
2022-12-14T14:25:38.679Z,100403.53
2022-12-14T14:27:50.230Z,100405.16
2022-12-14T14:29:52.618Z,100399.88
2022-12-14T14:31:57.959Z,100397.25
2022-12-14T14:34:00.413Z,100398.03
2022-12-14T14:38:55.972Z,100404.66
2022-12-14T14:41:18.014Z,100400.28
2022-12-14T14:43:27.579Z,100402.75
2022-12-14T14:45:39.700Z,100412.13
2022-12-14T14:47:42.308Z,100406.88
2022-12-14T14:49:44.362Z,100417.13
2022-12-14T14:51:45.809Z,100423.03
2022-12-14T14:53:50.270Z,100422.03
2022-12-14T14:56:30.178Z,100424.47
2022-12-14T14:58:34.172Z,100415.75
2022-12-14T15:00:50.598Z,100415.63
2022-12-14T15:02:54.467Z,100421.56
2022-12-14T15:05:05.468Z,100412.84
2022-12-14T15:07:37.176Z,100422.22
2022-12-14T15:09:46.570Z,100424.66
2022-12-14T15:11:53.691Z,100421.13
2022-12-14T15:14:33.152Z,100423.56
2022-12-14T15:16:44.984Z,100417.38
2022-12-14T15:18:46.483Z,100415.50
2022-12-14T15:21:03.149Z,100420.50
2022-12-14T15:23:06.133Z,100429.72
2022-12-14T15:25:14.153Z,100434.78
2022-12-14T15:27:34.775Z,100436.41
2022-12-14T15:29:36.389Z,100438.06
2022-12-14T15:31:42.489Z,100429.34
2022-12-14T15:33:47.788Z,100430.16
2022-12-14T15:35:49.638Z,100429.09
2022-12-14T15:37:59.973Z,100428.16
2022-12-14T15:40:07.818Z,100434.00
2022-12-14T15:42:12.823Z,100433.91
2022-12-14T15:44:22.009Z,100437.25
2022-12-14T15:46:27.853Z,100445.75
2022-12-14T15:48:32.870Z,100438.69
2022-12-14T15:50:35.162Z,100446.28
2022-12-14T15:52:36.663Z,100448.78
2022-12-14T15:54:38.308Z,100443.56
2022-12-14T15:56:41.959Z,100448.63
2022-12-14T15:58:44.248Z,100452.78
2022-12-14T16:00:49.392Z,100449.28
2022-12-14T16:02:51.350Z,100455.19
2022-12-14T16:04:55.083Z,100452.47
2022-12-14T16:07:08.117Z,100452.41
2022-12-14T16:09:26.069Z,100451.31
2022-12-14T16:11:44.458Z,100447.78
2022-12-14T16:13:46.988Z,100451.06
2022-12-14T16:15:49.383Z,100444.09
2022-12-14T16:18:00.709Z,100441.34
2022-12-14T16:20:23.684Z,100436.09
2022-12-14T16:22:30.316Z,100445.47
2022-12-14T16:24:31.864Z,100443.69
2022-12-14T16:26:37.545Z,100441.13
2022-12-14T16:28:39.030Z,100440.06
2022-12-14T16:31:02.676Z,100445.22
2022-12-14T16:33:17.605Z,100444.25
2022-12-14T16:35:28.031Z,100449.34
2022-12-14T16:37:33.017Z,100455.31
2022-12-14T16:39:44.220Z,100438.97
2022-12-14T16:41:57.078Z,100454.34
2022-12-14T16:44:01.817Z,100454.25
2022-12-14T16:46:03.277Z,100458.50
2022-12-14T16:48:18.228Z,100452.44
2022-12-14T16:50:40.099Z,100441.94
2022-12-14T16:52:43.518Z,100430.59
2022-12-14T16:55:15.411Z,100434.81
2022-12-14T16:57:20.949Z,100440.69
2022-12-14T16:59:25.569Z,100444.03
2022-12-14T17:01:27.732Z,100435.41
2022-12-14T17:03:30.548Z,100440.50
2022-12-14T17:05:35.588Z,100445.59
2022-12-14T17:07:37.412Z,100447.22
2022-12-14T17:09:39.992Z,100444.56
2022-12-14T17:11:41.470Z,100441.91
2022-12-14T17:13:42.892Z,100442.66
2022-12-14T17:15:58.482Z,100443.28
2022-12-14T17:18:03.830Z,100439.72
2022-12-14T17:20:09.308Z,100441.44
2022-12-14T17:22:18.264Z,100438.84
2022-12-14T17:24:22.237Z,100441.28
2022-12-14T17:26:25.574Z,100449.81
2022-12-14T17:28:30.052Z,100450.59
2022-12-14T17:30:31.740Z,100459.03
2022-12-14T17:32:34.087Z,100458.91
2022-12-14T17:34:35.553Z,100464.81
2022-12-14T17:36:37.057Z,100463.09
2022-12-14T17:38:38.538Z,100456.09
2022-12-14T17:40:40.259Z,100455.94
2022-12-14T17:42:45.905Z,100461.84
2022-12-14T17:44:59.398Z,100456.50
2022-12-14T17:47:00.837Z,100451.09
2022-12-14T17:49:06.455Z,100455.97
2022-12-14T17:51:16.455Z,100445.53
2022-12-14T17:53:23.328Z,100446.31
2022-12-14T17:55:27.318Z,100440.47
2022-12-14T17:57:28.816Z,100443.06
2022-12-14T17:59:30.438Z,100447.38
2022-12-14T18:01:32.120Z,100442.25
2022-12-14T18:03:36.792Z,100445.69
2022-12-14T18:05:44.968Z,100451.66
2022-12-14T18:07:50.330Z,100452.53
2022-12-14T18:09:53.598Z,100449.97
2022-12-14T18:12:22.010Z,100449.84
2022-12-14T18:14:16.943Z,100454.00
2022-12-14T18:16:20.360Z,100463.34
2022-12-14T18:18:24.084Z,100460.78
2022-12-14T18:20:26.192Z,100452.22
2022-12-14T18:22:27.636Z,100459.91
2022-12-14T18:24:29.090Z,100460.72
2022-12-14T18:26:30.549Z,100462.44
2022-12-14T18:28:32.210Z,100465.00
2022-12-14T18:30:41.733Z,100476.94
2022-12-14T18:32:44.620Z,100479.41
2022-12-14T18:34:46.080Z,100466.47
2022-12-14T18:36:47.614Z,100477.44
2022-12-14T18:38:50.168Z,100475.66
2022-12-14T18:40:53.300Z,100468.72
2022-12-14T18:42:55.337Z,100465.22
2022-12-14T18:44:56.771Z,100456.56
2022-12-14T18:47:14.711Z,100458.19
2022-12-14T18:49:19.642Z,100462.34
2022-12-14T18:51:23.862Z,100461.44
2022-12-14T18:53:26.414Z,100459.69
2022-12-14T18:55:31.576Z,100463.88
2022-12-14T18:57:33.076Z,100467.28
2022-12-14T18:59:39.100Z,100474.16
2022-12-14T19:01:43.754Z,100482.66
2022-12-14T19:03:45.593Z,100484.34
2022-12-14T19:05:47.647Z,100484.25
2022-12-14T19:07:50.098Z,100489.19
2022-12-14T19:09:51.628Z,100489.97
2022-12-14T19:11:53.082Z,100499.28
2022-12-14T19:13:55.206Z,100493.19
2022-12-14T19:15:56.976Z,100499.88
2022-12-14T19:17:59.092Z,100503.31
2022-12-14T19:20:00.552Z,100498.91
2022-12-14T19:22:02.006Z,100504.78
2022-12-14T19:24:04.113Z,100511.59
2022-12-14T19:26:05.877Z,100519.28
2022-12-14T19:30:28.943Z,100502.94
2022-12-14T19:32:30.450Z,100499.41
2022-12-14T19:34:32.063Z,100497.53
2022-12-14T19:36:33.560Z,100494.84
2022-12-14T19:38:36.091Z,100499.91
2022-12-14T19:40:37.612Z,100502.38
2022-12-14T19:42:39.637Z,100501.44
2022-12-14T19:44:41.084Z,100508.19
2022-12-14T19:46:42.628Z,100508.06
2022-12-14T19:48:44.671Z,100508.06
2022-12-14T19:50:49.323Z,100503.81
2022-12-14T19:52:52.483Z,100510.66
2022-12-14T19:54:54.357Z,100505.47
2022-12-14T19:56:56.019Z,100506.16
2022-12-14T19:59:00.828Z,100509.59
2022-12-14T20:01:07.499Z,100506.03
2022-12-14T20:03:09.041Z,100503.34
2022-12-14T20:05:10.770Z,100517.03
2022-12-14T20:07:14.260Z,100500.72
2022-12-14T20:09:17.275Z,100505.78
2022-12-14T20:11:20.372Z,100494.63
2022-12-14T20:13:23.288Z,100494.50
2022-12-14T20:15:24.849Z,100492.75
2022-12-14T20:17:26.587Z,100490.03
2022-12-14T20:19:28.161Z,100496.72
2022-12-14T20:21:30.065Z,100491.53
2022-12-14T20:23:32.913Z,100500.09
2022-12-14T20:25:34.934Z,100500.91
2022-12-14T20:27:40.614Z,100496.66
2022-12-14T20:29:42.803Z,100494.84
2022-12-14T20:31:44.373Z,100498.97
2022-12-14T20:33:45.975Z,100500.53
2022-12-14T20:35:51.432Z,100503.91
2022-12-14T20:37:53.744Z,100501.31
2022-12-14T20:39:55.175Z,100503.81
2022-12-14T20:41:56.856Z,100506.38
2022-12-14T20:43:59.187Z,100507.19
2022-12-14T20:46:00.677Z,100507.13
2022-12-14T20:48:02.141Z,100505.31
2022-12-14T20:50:04.034Z,100510.31
2022-12-14T20:52:05.603Z,100508.44
2022-12-14T20:54:10.711Z,100503.38
2022-12-14T20:56:12.198Z,100505.88
2022-12-14T20:58:13.638Z,100503.25
2022-12-14T21:00:15.486Z,100503.25
2022-12-14T21:02:18.672Z,100507.50
2022-12-14T21:04:20.192Z,100509.13
2022-12-14T21:06:23.382Z,100524.47
2022-12-14T21:08:24.951Z,100515.94
2022-12-14T21:10:26.512Z,100521.03
2022-12-14T21:12:28.028Z,100526.91
2022-12-14T21:14:32.811Z,100538.63
2022-12-14T21:16:36.079Z,100528.31
2022-12-14T21:18:37.603Z,100531.84
2022-12-14T21:20:39.066Z,100530.16
2022-12-14T21:22:40.538Z,100533.59
2022-12-14T21:27:04.621Z,100529.59
2022-12-14T21:29:07.905Z,100526.22
2022-12-14T21:31:16.229Z,100531.41
2022-12-14T21:33:17.780Z,100533.22
2022-12-14T21:35:19.239Z,100535.09
2022-12-14T21:37:20.911Z,100530.84
2022-12-14T21:39:22.518Z,100523.16
2022-12-14T21:41:42.466Z,100537.78
2022-12-14T21:43:43.899Z,100546.34
2022-12-14T21:45:46.189Z,100524.16
2022-12-14T21:47:47.814Z,100531.91
2022-12-14T21:49:49.395Z,100525.09
2022-12-14T21:51:54.254Z,100536.16
2022-12-14T21:53:59.262Z,100530.09
2022-12-14T21:56:19.275Z,100528.41
2022-12-14T21:58:20.886Z,100523.16
2022-12-14T22:00:22.447Z,100519.72
2022-12-14T22:02:25.655Z,100520.53
2022-12-14T22:04:29.201Z,100528.22
2022-12-14T22:06:32.634Z,100533.53
2022-12-14T22:08:34.172Z,100530.34
2022-12-14T22:10:35.629Z,100533.09
2022-12-14T22:12:37.067Z,100529.78
2022-12-14T22:14:38.943Z,100533.97
2022-12-14T22:16:41.459Z,100535.66
2022-12-14T22:18:42.928Z,100533.09
2022-12-14T22:20:44.409Z,100538.28
2022-12-14T22:22:45.911Z,100540.03
2022-12-14T22:24:51.181Z,100542.72
2022-12-14T22:26:52.889Z,100542.03
2022-12-14T22:28:54.452Z,100532.72
2022-12-14T22:30:55.967Z,100533.69
2022-12-14T22:32:58.160Z,100523.50
2022-12-14T22:34:59.767Z,100531.25
2022-12-14T22:37:01.688Z,100535.56
2022-12-14T22:39:03.286Z,100540.81
2022-12-14T22:41:05.922Z,100531.44
2022-12-14T22:43:07.357Z,100536.59
2022-12-14T22:45:09.423Z,100534.91
2022-12-14T22:47:10.947Z,100528.91
2022-12-14T22:49:17.640Z,100529.84
2022-12-14T22:51:20.252Z,100538.41
2022-12-14T22:53:21.689Z,100538.41
2022-12-14T22:55:24.296Z,100540.22
2022-12-14T22:57:25.927Z,100532.59
2022-12-14T22:59:58.175Z,100536.16
2022-12-14T23:01:59.982Z,100537.84
2022-12-14T23:04:02.165Z,100552.41
2022-12-14T23:06:03.946Z,100557.53
2022-12-14T23:08:05.821Z,100546.53
2022-12-14T23:10:26.226Z,100556.91
2022-12-14T23:12:46.112Z,100559.59
2022-12-14T23:15:05.893Z,100555.63
2022-12-14T23:17:26.324Z,100562.91
2022-12-14T23:19:46.228Z,100559.16
2022-12-14T23:22:06.534Z,100560.38
2022-12-14T23:24:26.908Z,100566.66
2022-12-14T23:26:47.353Z,100557.66
2022-12-14T23:29:07.212Z,100553.69
2022-12-14T23:31:27.208Z,100542.81
2022-12-14T23:33:47.401Z,100536.91
2022-12-14T23:36:07.608Z,100536.97
2022-12-14T23:38:28.123Z,100531.84
2022-12-14T23:40:48.011Z,100533.63
2022-12-14T23:43:07.898Z,100531.19
2022-12-14T23:45:28.264Z,100535.56
2022-12-14T23:47:49.372Z,100528.81
2022-12-14T23:50:09.791Z,100531.41
2022-12-14T23:52:29.573Z,100518.50
2022-12-14T23:54:49.978Z,100521.13
2022-12-14T23:57:10.260Z,100524.63
2022-12-14T23:59:32.556Z,100526.41
